Time;durP1;ratioP1;P1;durP2;ratioP2;P2;SDS_P1;SDS_P2;PMS_P1;PMS_P2;Temp;Humidity;BMP_temperature;BMP_pressure;BME280_temperature;BME280_humidity;BME280_pressure;Samples;Min_cycle;Max_cycle;Signal;HPM_P1;HPM_P2
2022/05/21 00:01:33;;;;;;;15.93;7.50;;;10.10;99.90;;;;;;4940529;28;20416;-89
2022/05/21 00:03:59;;;;;;;15.45;8.05;;;10.20;99.90;;;;;;4955576;28;20080;-89
2022/05/21 00:06:25;;;;;;;16.80;10.05;;;10.20;99.90;;;;;;4940353;28;20395;-92
2022/05/21 00:08:51;;;;;;;20.92;10.60;;;10.10;99.90;;;;;;4963999;28;20101;-89
2022/05/21 00:11:16;;;;;;;18.25;11.50;;;10.10;99.90;;;;;;5009214;28;20034;-89
2022/05/21 00:13:44;;;;;;;23.48;12.60;;;10.60;99.90;;;;;;4958506;28;20030;-89
2022/05/21 00:16:10;;;;;;;19.00;12.57;;;10.10;99.90;;;;;;4965698;28;20054;-90
2022/05/21 00:18:35;;;;;;;27.20;14.32;;;10.60;99.90;;;;;;4959559;28;20096;-89
2022/05/21 00:21:01;;;;;;;25.13;15.10;;;10.20;99.90;;;;;;4961380;28;20038;-89
2022/05/21 00:23:31;;;;;;;23.27;13.43;;;10.10;99.90;;;;;;4954499;28;20038;-89
2022/05/21 00:26:06;;;;;;;25.80;15.93;;;10.50;99.90;;;;;;4976154;28;20019;-89
2022/05/21 00:28:33;;;;;;;26.70;17.65;;;10.20;99.90;;;;;;5000473;28;20042;-89
2022/05/21 00:31:00;;;;;;;32.42;18.70;;;10.20;99.90;;;;;;4987300;28;20054;-89
2022/05/21 00:33:27;;;;;;;36.50;18.60;;;10.10;99.90;;;;;;4961666;28;20258;-88
2022/05/21 00:35:53;;;;;;;36.03;20.63;;;10.10;99.90;;;;;;4950687;28;20038;-88
2022/05/21 00:38:20;;;;;;;29.70;18.30;;;10.10;99.90;;;;;;4968346;28;20043;-89
2022/05/21 00:40:47;;;;;;;37.85;21.40;;;10.10;99.90;;;;;;4973603;28;20034;-89
2022/05/21 00:43:40;;;;;;;30.33;20.30;;;10.40;99.90;;;;;;4982890;28;20495;-90
2022/05/21 00:46:13;;;;;;;38.00;21.33;;;10.10;99.90;;;;;;4988748;28;20149;-89
2022/05/21 00:48:40;;;;;;;37.80;21.88;;;10.20;99.90;;;;;;4984380;28;20073;-90
2022/05/21 00:51:10;;;;;;;41.15;23.17;;;10.10;99.90;;;;;;4972156;28;20692;-89
2022/05/21 00:53:36;;;;;;;40.40;21.52;;;10.70;99.90;;;;;;4988454;28;20083;-89
2022/05/21 00:56:02;;;;;;;40.72;22.75;;;10.10;99.90;;;;;;4986186;28;20038;-89
2022/05/21 01:01:16;;;;;;;35.67;23.58;;;10.60;99.90;;;;;;4983557;28;20029;-90
2022/05/21 01:03:43;;;;;;;46.28;24.17;;;10.10;99.90;;;;;;4959707;28;20064;-89
2022/05/21 01:06:10;;;;;;;37.05;22.05;;;10.60;99.90;;;;;;4972407;28;20077;-90
2022/05/21 01:08:37;;;;;;;46.72;24.17;;;10.10;99.90;;;;;;4931453;28;20042;-90
2022/05/21 01:11:10;;;;;;;44.15;23.60;;;10.10;99.90;;;;;;4942958;28;20096;-90
2022/05/21 01:13:38;;;;;;;39.15;23.63;;;10.40;99.90;;;;;;4967067;28;20034;-89
2022/05/21 01:16:05;;;;;;;44.53;22.75;;;10.20;99.90;;;;;;4971064;28;20058;-91
2022/05/21 01:18:31;;;;;;;40.40;23.77;;;10.30;99.90;;;;;;4956677;28;20034;-90
2022/05/21 01:20:59;;;;;;;45.22;24.60;;;10.10;99.90;;;;;;4953345;28;20168;-90
2022/05/21 01:23:26;;;;;;;42.40;23.90;;;10.10;99.90;;;;;;4967829;28;20050;-90
2022/05/21 01:25:54;;;;;;;52.28;26.65;;;10.10;99.90;;;;;;4952539;28;20531;-90
2022/05/21 01:28:22;;;;;;;55.63;27.83;;;10.20;99.90;;;;;;4969888;28;20071;-90
2022/05/21 01:30:51;;;;;;;52.92;27.38;;;10.20;99.90;;;;;;4955077;28;20046;-90
2022/05/21 01:33:19;;;;;;;57.25;28.75;;;10.30;99.90;;;;;;4968053;28;20045;-90
2022/05/21 01:35:46;;;;;;;54.40;28.27;;;10.20;99.90;;;;;;4971268;28;20430;-90
2022/05/21 01:38:14;;;;;;;56.28;30.08;;;10.20;99.90;;;;;;4957058;28;20047;-90
2022/05/21 01:40:40;;;;;;;61.20;29.50;;;10.30;99.90;;;;;;4959377;28;20042;-91
2022/05/21 01:45:52;;;;;;;62.33;31.10;;;10.30;99.90;;;;;;4971886;28;20034;-90
2022/05/21 01:48:21;;;;;;;60.72;30.95;;;10.40;99.90;;;;;;4968814;28;20403;-90
2022/05/21 01:50:47;;;;;;;61.28;32.63;;;10.30;99.90;;;;;;4943966;28;20046;-90
2022/05/21 01:53:15;;;;;;;55.58;31.02;;;10.70;99.90;;;;;;4957875;28;20030;-90
2022/05/21 01:55:41;;;;;;;65.30;32.58;;;10.40;99.90;;;;;;4942719;28;20106;-89
2022/05/21 01:58:07;;;;;;;71.88;33.38;;;10.50;99.90;;;;;;4967309;28;20066;-91
2022/05/21 02:00:33;;;;;;;70.80;34.90;;;10.50;99.90;;;;;;4957633;28;20085;-90
2022/05/21 02:02:58;;;;;;;67.93;33.85;;;10.60;99.90;;;;;;4970363;28;20054;-89
2022/05/21 02:05:24;;;;;;;62.50;34.15;;;10.60;99.90;;;;;;4955896;28;20127;-89
2022/05/21 02:07:50;;;;;;;65.85;34.35;;;10.60;99.90;;;;;;4958231;28;20038;-89
2022/05/21 02:10:16;;;;;;;71.65;36.78;;;11.00;99.90;;;;;;4954055;28;20042;-89
2022/05/21 02:12:41;;;;;;;68.32;38.28;;;10.60;99.90;;;;;;4951299;28;20045;-93
2022/05/21 02:15:08;;;;;;;75.32;38.15;;;10.70;99.90;;;;;;4956407;28;20069;-93
2022/05/21 02:17:33;;;;;;;71.78;38.97;;;10.70;99.90;;;;;;4951509;28;20073;-91
2022/05/21 02:20:00;;;;;;;78.28;41.60;;;10.80;99.90;;;;;;4953861;28;20515;-92
2022/05/21 02:22:27;;;;;;;77.32;40.47;;;10.80;99.90;;;;;;4954553;28;20038;-88
2022/05/21 02:24:53;;;;;;;74.03;39.97;;;10.80;99.90;;;;;;4971690;28;20073;-91
2022/05/21 02:27:19;;;;;;;82.28;42.33;;;10.80;99.90;;;;;;4955721;28;20152;-91
2022/05/21 02:29:45;;;;;;;83.50;41.70;;;11.10;99.90;;;;;;4956157;28;20035;-90
2022/05/21 02:32:12;;;;;;;75.22;41.13;;;10.80;99.90;;;;;;4955578;28;20073;-90
2022/05/21 02:34:39;;;;;;;77.88;40.10;;;10.80;99.90;;;;;;4955884;28;20543;-91
2022/05/21 02:39:50;;;;;;;73.15;40.97;;;10.90;99.90;;;;;;4966113;28;20052;-90
2022/05/21 02:45:03;;;;;;;73.13;40.75;;;10.90;99.90;;;;;;4971169;28;20068;-92
2022/05/21 02:47:29;;;;;;;74.30;41.80;;;10.90;99.90;;;;;;4958279;28;20077;-90
2022/05/21 02:49:55;;;;;;;89.15;43.17;;;11.00;99.90;;;;;;4940725;28;20041;-90
2022/05/21 02:52:22;;;;;;;79.00;41.28;;;11.00;99.90;;;;;;4957289;28;20038;-91
2022/05/21 02:54:47;;;;;;;72.47;41.42;;;11.00;99.90;;;;;;4941978;28;20054;-91
2022/05/21 02:57:13;;;;;;;71.50;39.80;;;11.00;99.90;;;;;;4941073;28;20141;-89
2022/05/21 02:59:39;;;;;;;79.60;43.17;;;11.00;99.90;;;;;;4954510;28;20476;-91
2022/05/21 03:02:06;;;;;;;75.97;40.80;;;11.00;99.90;;;;;;4972049;28;20050;-90
2022/05/21 03:04:32;;;;;;;73.50;39.10;;;11.00;99.90;;;;;;4954921;28;20129;-90
2022/05/21 03:06:58;;;;;;;68.10;40.10;;;11.00;99.90;;;;;;4954387;28;20046;-90
2022/05/21 03:12:10;;;;;;;64.47;39.70;;;11.10;99.90;;;;;;4962480;28;20400;-90
2022/05/21 03:14:36;;;;;;;63.55;37.22;;;11.10;99.90;;;;;;4972600;28;20495;-89
2022/05/21 03:17:02;;;;;;;60.65;36.85;;;11.20;99.90;;;;;;4951467;28;20046;-88
2022/05/21 03:19:29;;;;;;;60.53;34.65;;;11.10;99.90;;;;;;4971409;28;20531;-90
2022/05/21 03:21:56;;;;;;;62.58;35.65;;;11.20;99.90;;;;;;4971139;28;20483;-89
2022/05/21 03:24:21;;;;;;;59.08;36.03;;;11.20;99.90;;;;;;4940850;28;20050;-90
2022/05/21 03:26:47;;;;;;;60.65;35.15;;;11.20;99.90;;;;;;4938513;28;20162;-88
2022/05/21 03:29:13;;;;;;;65.55;35.08;;;11.20;99.90;;;;;;4956432;28;20045;-88
2022/05/21 03:31:39;;;;;;;64.45;35.28;;;11.20;99.90;;;;;;4934055;28;20117;-88
2022/05/21 03:34:05;;;;;;;58.90;34.17;;;11.20;99.90;;;;;;4953384;28;20053;-88
2022/05/21 03:36:32;;;;;;;54.95;31.38;;;11.20;99.90;;;;;;4969327;28;20081;-88
2022/05/21 03:38:58;;;;;;;60.85;32.78;;;11.30;99.90;;;;;;4955401;28;20074;-89
2022/05/21 03:41:25;;;;;;;54.55;31.65;;;11.30;99.90;;;;;;4944398;28;20061;-88
2022/05/21 03:43:52;;;;;;;50.75;32.92;;;11.30;99.90;;;;;;4965250;28;20052;-90
2022/05/21 03:46:19;;;;;;;61.15;33.45;;;11.30;99.90;;;;;;4949151;28;20066;-89
2022/05/21 03:48:45;;;;;;;49.28;29.52;;;11.40;99.90;;;;;;4967057;28;20054;-89
2022/05/21 03:51:11;;;;;;;51.80;29.80;;;11.30;99.90;;;;;;4938354;28;20602;-89
2022/05/21 03:53:37;;;;;;;56.35;30.83;;;11.40;99.90;;;;;;4952206;28;20092;-89
2022/05/21 03:56:04;;;;;;;63.67;31.70;;;11.30;99.90;;;;;;4968108;28;20091;-89
2022/05/21 03:58:30;;;;;;;47.90;27.73;;;11.40;99.90;;;;;;4976234;28;20040;-89
2022/05/21 04:00:56;;;;;;;56.55;28.50;;;11.30;99.90;;;;;;4955012;28;20058;-88
2022/05/21 04:03:22;;;;;;;53.70;29.67;;;11.40;99.90;;;;;;4939296;28;20042;-89
2022/05/21 04:05:48;;;;;;;50.90;27.60;;;11.40;99.90;;;;;;4960433;28;20035;-89
2022/05/21 04:08:16;;;;;;;44.78;24.85;;;11.40;99.90;;;;;;4954685;28;20038;-88
2022/05/21 04:10:42;;;;;;;51.85;27.10;;;11.50;99.90;;;;;;4962336;28;20101;-89
2022/05/21 04:13:07;;;;;;;49.10;26.17;;;11.50;99.90;;;;;;4966422;28;20043;-89
2022/05/21 04:15:34;;;;;;;49.78;26.30;;;11.50;99.90;;;;;;4938101;28;20571;-89
2022/05/21 04:18:02;;;;;;;49.90;25.52;;;11.50;99.90;;;;;;4949909;28;20061;-89
2022/05/21 04:20:28;;;;;;;50.28;25.40;;;11.50;99.90;;;;;;4959112;28;20038;-90
2022/05/21 04:22:54;;;;;;;59.13;26.20;;;11.50;99.90;;;;;;4960807;28;20607;-88
2022/05/21 04:25:20;;;;;;;44.38;23.13;;;11.50;99.90;;;;;;4964142;28;20407;-88
2022/05/21 04:27:46;;;;;;;47.35;25.13;;;11.60;99.90;;;;;;4951990;28;20056;-89
2022/05/21 04:30:16;;;;;;;46.55;22.70;;;11.60;99.90;;;;;;4953834;28;20046;-89
2022/05/21 04:32:43;;;;;;;42.08;22.45;;;11.60;99.90;;;;;;4950710;28;20480;-88
2022/05/21 04:35:10;;;;;;;38.13;22.38;;;11.60;99.90;;;;;;4953073;28;20042;-88
2022/05/21 04:37:37;;;;;;;45.20;22.67;;;11.60;99.90;;;;;;4951389;28;20034;-87
2022/05/21 04:40:10;;;;;;;39.60;22.95;;;11.60;99.90;;;;;;4951558;28;20042;-88
2022/05/21 04:42:35;;;;;;;44.42;22.05;;;11.60;99.90;;;;;;4966190;28;20073;-88
2022/05/21 04:45:03;;;;;;;36.80;21.95;;;11.70;99.90;;;;;;4962056;28;20173;-88
2022/05/21 04:47:29;;;;;;;41.05;21.98;;;11.70;99.90;;;;;;4957935;28;20784;-87
2022/05/21 04:49:54;;;;;;;42.58;21.15;;;11.70;99.90;;;;;;4948381;28;20038;-88
2022/05/21 04:52:20;;;;;;;46.90;22.45;;;11.70;99.90;;;;;;4951009;28;20042;-88
2022/05/21 04:54:45;;;;;;;38.60;20.17;;;11.70;99.90;;;;;;4969145;28;20034;-88
2022/05/21 04:57:11;;;;;;;40.42;19.60;;;11.70;99.90;;;;;;4933633;28;20046;-89
2022/05/21 04:59:37;;;;;;;39.15;19.38;;;11.70;99.90;;;;;;4949563;28;20049;-88
2022/05/21 05:02:03;;;;;;;37.90;20.70;;;11.80;99.90;;;;;;4965842;28;20488;-88
2022/05/21 05:04:28;;;;;;;42.80;20.58;;;11.80;99.90;;;;;;4951490;28;20044;-89
2022/05/21 05:06:54;;;;;;;34.72;18.52;;;11.80;99.90;;;;;;4934092;28;20506;-88
2022/05/21 05:09:22;;;;;;;43.20;17.80;;;11.80;99.90;;;;;;4950976;28;20038;-89
2022/05/21 05:11:49;;;;;;;34.53;18.60;;;11.80;99.90;;;;;;4951332;28;20121;-88
2022/05/21 05:14:15;;;;;;;35.40;17.85;;;11.80;99.90;;;;;;4949971;28;20085;-88
2022/05/21 05:16:41;;;;;;;33.60;16.88;;;11.80;99.90;;;;;;4952741;28;20715;-88
2022/05/21 05:19:07;;;;;;;38.33;17.75;;;11.90;99.90;;;;;;4952317;28;20491;-88
2022/05/21 05:21:33;;;;;;;36.83;16.25;;;11.90;99.90;;;;;;4954757;28;20138;-88
2022/05/21 05:23:58;;;;;;;28.90;15.43;;;11.90;99.90;;;;;;4947949;28;20046;-88
2022/05/21 05:26:25;;;;;;;32.75;15.63;;;11.90;99.90;;;;;;4955840;28;20113;-88
2022/05/21 05:28:51;;;;;;;29.42;14.15;;;12.00;99.90;;;;;;4939950;28;20035;-87
2022/05/21 05:31:17;;;;;;;26.38;11.82;;;12.00;99.90;;;;;;4971761;28;20069;-90
2022/05/21 05:33:42;;;;;;;27.95;11.93;;;12.00;99.90;;;;;;4966472;28;20066;-88
2022/05/21 05:36:08;;;;;;;29.77;12.65;;;12.10;99.90;;;;;;4949192;28;20070;-88
2022/05/21 05:38:34;;;;;;;31.20;12.25;;;12.20;99.90;;;;;;4963313;28;20035;-88
2022/05/21 05:41:01;;;;;;;34.13;12.57;;;12.20;99.90;;;;;;4944313;28;20046;-88
2022/05/21 05:43:27;;;;;;;28.92;11.05;;;12.30;99.90;;;;;;4966808;28;20109;-88
2022/05/21 05:45:58;;;;;;;29.52;11.13;;;12.30;99.90;;;;;;4983332;28;20411;-88
2022/05/21 05:48:28;;;;;;;22.60;8.55;;;12.40;99.90;;;;;;4936423;28;20038;-88
2022/05/21 05:50:55;;;;;;;21.42;8.32;;;12.40;99.90;;;;;;4952802;28;20125;-88
2022/05/21 05:53:21;;;;;;;24.45;7.85;;;12.50;99.90;;;;;;4953104;28;20499;-88
2022/05/21 05:55:48;;;;;;;19.38;6.97;;;12.50;99.90;;;;;;4964158;28;20041;-87
2022/05/21 06:00:58;;;;;;;18.63;5.57;;;12.60;99.90;;;;;;4954676;28;20133;-88
2022/05/21 06:03:24;;;;;;;20.45;6.10;;;12.70;99.90;;;;;;4945775;28;20134;-89
2022/05/21 06:05:50;;;;;;;20.73;5.60;;;12.70;99.90;;;;;;4964050;28;20042;-87
2022/05/21 06:08:16;;;;;;;12.10;5.30;;;12.70;99.90;;;;;;4966045;28;20051;-88
2022/05/21 06:10:45;;;;;;;15.27;5.93;;;12.70;99.90;;;;;;4963270;28;20062;-89
2022/05/21 06:13:11;;;;;;;17.15;5.75;;;12.80;99.90;;;;;;4950942;28;20384;-88
2022/05/21 06:15:38;;;;;;;16.70;5.05;;;12.80;99.90;;;;;;4960991;28;20073;-88
2022/05/21 06:18:10;;;;;;;21.77;5.20;;;12.80;99.90;;;;;;4964626;28;20509;-88
2022/05/21 06:20:36;;;;;;;11.35;4.70;;;12.80;99.90;;;;;;4955397;28;20041;-88
2022/05/21 06:23:02;;;;;;;16.58;4.90;;;12.80;99.90;;;;;;4938343;28;20046;-89
2022/05/21 06:25:29;;;;;;;11.82;5.07;;;12.80;99.90;;;;;;4953356;28;20040;-89
2022/05/21 06:27:56;;;;;;;18.13;5.47;;;12.80;99.90;;;;;;4955070;28;20558;-89
2022/05/21 06:30:24;;;;;;;15.43;4.25;;;12.80;99.90;;;;;;4966674;28;20606;-91
2022/05/21 06:32:50;;;;;;;15.20;4.03;;;12.90;99.90;;;;;;4966194;28;20042;-90
2022/05/21 06:35:17;;;;;;;22.42;4.85;;;12.90;99.90;;;;;;4938613;28;20402;-89
2022/05/21 06:37:43;;;;;;;18.38;4.88;;;12.90;99.90;;;;;;4954377;28;20035;-91
2022/05/21 06:40:10;;;;;;;12.95;4.45;;;13.00;99.90;;;;;;4938756;28;20040;-90
2022/05/21 06:42:37;;;;;;;12.98;4.22;;;13.00;99.90;;;;;;4963674;28;20069;-89
2022/05/21 06:45:04;;;;;;;12.30;4.03;;;13.00;99.90;;;;;;4950352;28;20507;-89
2022/05/21 06:47:29;;;;;;;12.38;4.10;;;13.00;99.90;;;;;;4972453;28;20074;-89
2022/05/21 06:49:56;;;;;;;15.50;4.47;;;13.10;99.90;;;;;;4936149;28;20713;-85
2022/05/21 06:52:26;;;;;;;17.67;4.70;;;13.10;99.90;;;;;;4951761;28;20272;-85
2022/05/21 06:54:52;;;;;;;12.27;4.63;;;13.20;99.90;;;;;;4952465;28;20040;-86
2022/05/21 06:57:19;;;;;;;20.08;4.70;;;13.20;99.90;;;;;;4956669;28;20035;-87
2022/05/21 06:59:46;;;;;;;14.75;4.68;;;13.20;99.90;;;;;;4959454;28;20030;-87
2022/05/21 07:02:11;;;;;;;12.18;4.22;;;13.20;99.90;;;;;;4954275;28;20077;-87
2022/05/21 07:07:34;;;;;;;12.35;4.43;;;13.20;99.90;;;;;;4965199;28;20065;-87
2022/05/21 07:10:02;;;;;;;10.95;4.05;;;13.30;99.90;;;;;;4943279;28;20125;-88
2022/05/21 07:12:28;;;;;;;12.00;4.18;;;13.50;99.90;;;;;;4952494;28;20042;-85
2022/05/21 07:14:53;;;;;;;9.93;4.22;;;13.60;99.90;;;;;;4952108;28;20433;-86
2022/05/21 07:17:19;;;;;;;12.80;4.35;;;13.70;99.90;;;;;;4928051;28;20085;-85
2022/05/21 07:19:45;;;;;;;11.20;4.50;;;13.70;99.90;;;;;;4932981;28;20038;-87
2022/05/21 07:22:11;;;;;;;11.85;3.83;;;13.80;99.90;;;;;;4952694;28;20081;-87
2022/05/21 07:24:42;;;;;;;13.27;4.25;;;13.80;99.90;;;;;;4936391;28;20101;-88
2022/05/21 07:27:08;;;;;;;11.52;4.03;;;13.80;99.90;;;;;;4959193;28;20089;-86
2022/05/21 07:29:37;;;;;;;11.93;3.92;;;13.80;99.90;;;;;;4970007;28;20496;-86
2022/05/21 07:32:05;;;;;;;14.52;4.38;;;13.90;99.90;;;;;;4951742;28;20056;-85
2022/05/21 07:34:30;;;;;;;13.02;4.03;;;14.00;99.90;;;;;;4920281;28;20037;-88
2022/05/21 07:36:56;;;;;;;17.38;4.97;;;14.10;99.90;;;;;;4953146;28;20030;-86
2022/05/21 07:39:21;;;;;;;9.70;4.13;;;14.00;99.90;;;;;;4950201;28;20637;-86
2022/05/21 07:41:48;;;;;;;10.95;4.00;;;13.90;99.90;;;;;;4952343;28;20073;-88
2022/05/21 07:44:13;;;;;;;14.27;4.10;;;13.70;99.90;;;;;;4951878;28;20062;-89
2022/05/21 07:46:39;;;;;;;11.15;3.72;;;13.70;99.90;;;;;;4965161;28;20145;-90
2022/05/21 07:49:05;;;;;;;12.88;3.97;;;13.90;99.90;;;;;;4954341;28;20137;-88
2022/05/21 07:51:30;;;;;;;10.07;3.58;;;14.10;99.90;;;;;;4943327;28;20043;-89
2022/05/21 07:53:56;;;;;;;10.75;5.15;;;14.10;99.90;;;;;;4968806;28;20034;-88
2022/05/21 07:56:22;;;;;;;10.75;4.00;;;14.10;99.90;;;;;;4952026;28;20046;-88
2022/05/21 07:58:49;;;;;;;10.93;4.00;;;14.10;99.90;;;;;;4951982;28;20038;-89
2022/05/21 08:01:16;;;;;;;13.60;4.22;;;14.20;99.90;;;;;;4935515;28;20381;-89
2022/05/21 08:03:43;;;;;;;16.75;3.80;;;14.40;99.90;;;;;;4952884;28;20120;-90
2022/05/21 08:06:09;;;;;;;11.00;3.65;;;14.90;99.90;;;;;;4952651;28;20084;-91
2022/05/21 08:08:35;;;;;;;11.63;3.50;;;14.70;99.90;;;;;;4950326;28;20133;-87
2022/05/21 08:11:01;;;;;;;6.28;3.13;;;14.60;99.90;;;;;;4963675;28;20035;-89
2022/05/21 08:13:26;;;;;;;14.07;3.85;;;14.30;99.90;;;;;;4950725;28;20030;-89
2022/05/21 08:15:52;;;;;;;14.85;3.92;;;14.10;99.90;;;;;;4930941;28;20900;-88
2022/05/21 08:18:18;;;;;;;10.80;3.92;;;14.00;99.90;;;;;;4948805;28;20030;-91
2022/05/21 08:20:44;;;;;;;11.38;3.75;;;13.90;99.90;;;;;;4937602;28;20046;-91
2022/05/21 08:28:46;;;;;;;7.60;2.80;;;14.00;99.90;;;;;;4959626;28;20046;-84
2022/05/21 08:31:11;;;;;;;10.13;3.08;;;14.20;99.90;;;;;;4945100;28;20133;-88
2022/05/21 08:33:37;;;;;;;8.32;2.65;;;14.30;99.90;;;;;;4956418;28;20117;-88
2022/05/21 08:36:04;;;;;;;7.28;2.92;;;14.40;99.90;;;;;;4965142;28;20050;-88
2022/05/21 08:38:29;;;;;;;9.57;3.20;;;14.40;99.90;;;;;;4972157;28;20026;-86
2022/05/21 08:41:17;;;;;;;7.63;2.55;;;14.60;99.90;;;;;;4948920;28;20043;-86
2022/05/21 08:43:51;;;;;;;7.28;2.67;;;14.50;99.90;;;;;;4964828;28;20042;-87
2022/05/21 08:46:51;;;;;;;10.93;3.55;;;14.30;99.90;;;;;;4950474;28;20669;-87
2022/05/21 08:49:40;;;;;;;18.65;2.88;;;14.20;99.90;;;;;;4951785;28;20114;-87
2022/05/21 08:52:16;;;;;;;8.68;2.85;;;14.30;99.90;;;;;;4948005;28;20404;-88
2022/05/21 08:54:44;;;;;;;8.70;3.15;;;14.60;99.90;;;;;;4966504;28;20038;-88
2022/05/21 08:57:15;;;;;;;12.45;3.33;;;14.50;99.90;;;;;;4951751;28;20060;-84
2022/05/21 08:59:49;;;;;;;8.27;2.60;;;14.50;99.90;;;;;;4969433;28;20026;-84
2022/05/21 09:02:18;;;;;;;6.97;2.65;;;14.40;99.90;;;;;;4969409;28;20722;-84
2022/05/21 09:04:44;;;;;;;8.50;2.83;;;14.40;99.90;;;;;;4970784;28;20540;-84
2022/05/21 09:07:20;;;;;;;4.43;2.25;;;14.50;99.90;;;;;;4957206;28;20125;-85
2022/05/21 09:10:00;;;;;;;7.13;2.53;;;14.60;99.90;;;;;;4949803;28;20775;-84
2022/05/21 09:12:42;;;;;;;5.60;2.58;;;14.60;99.90;;;;;;4956943;28;20049;-84
2022/05/21 09:16:54;;;;;;;9.15;3.38;;;14.60;99.90;;;;;;4971830;28;20061;-85
2022/05/21 09:18:01;;;;;;;9.60;2.83;;;14.50;99.90;;;;;;4971672;28;20054;-85
2022/05/21 09:20:32;;;;;;;8.50;2.40;;;14.50;99.90;;;;;;4967313;28;20037;-85
2022/05/21 09:23:00;;;;;;;7.53;2.65;;;14.40;99.90;;;;;;4957113;28;20049;-84
2022/05/21 09:25:26;;;;;;;9.30;2.10;;;14.40;99.90;;;;;;4973215;28;20046;-85
2022/05/21 09:28:06;;;;;;;10.00;3.13;;;14.30;99.90;;;;;;4953274;28;20388;-85
2022/05/21 09:30:53;;;;;;;8.30;2.50;;;14.30;99.90;;;;;;4975616;28;20034;-74
2022/05/21 09:33:38;;;;;;;10.60;2.65;;;14.50;99.90;;;;;;4976050;28;20515;-73
2022/05/21 09:36:05;;;;;;;7.90;3.38;;;14.80;99.90;;;;;;4975835;28;20039;-79
2022/05/21 09:38:33;;;;;;;10.30;2.30;;;14.90;99.90;;;;;;4950242;28;20070;-79
2022/05/21 09:41:20;;;;;;;5.78;2.00;;;14.90;99.90;;;;;;4959017;28;20073;-79
2022/05/21 09:47:08;;;;;;;10.32;2.83;;;14.90;99.90;;;;;;4980274;28;20034;-80
2022/05/21 09:49:34;;;;;;;5.63;2.45;;;15.20;99.90;;;;;;4966321;28;20034;-80
2022/05/21 09:52:02;;;;;;;6.82;3.20;;;15.30;99.90;;;;;;4981327;28;20522;-80
2022/05/21 09:54:40;;;;;;;8.40;2.00;;;15.30;99.90;;;;;;4963634;28;20121;-80
2022/05/21 09:57:21;;;;;;;6.00;2.10;;;15.20;99.90;;;;;;4963031;28;20136;-79
2022/05/21 10:00:24;;;;;;;7.90;2.20;;;15.10;99.90;;;;;;4960160;28;20096;-79
2022/05/21 10:02:56;;;;;;;8.45;2.33;;;15.00;99.90;;;;;;4966933;28;20066;-80
2022/05/21 10:05:54;;;;;;;9.63;2.67;;;15.10;99.90;;;;;;4966573;28;20403;-81
2022/05/21 10:11:49;;;;;;;8.02;2.65;;;15.50;99.90;;;;;;4959102;28;20134;-80
2022/05/21 10:14:17;;;;;;;7.78;2.55;;;15.50;99.90;;;;;;4959121;28;20050;-80
2022/05/21 10:16:59;;;;;;;8.68;2.60;;;15.50;99.90;;;;;;4957289;28;20055;-80
2022/05/21 10:19:46;;;;;;;6.22;2.55;;;15.60;99.90;;;;;;4955887;28;20503;-80
2022/05/21 10:22:40;;;;;;;6.40;2.70;;;15.80;99.90;;;;;;4955764;28;20047;-79
2022/05/21 10:25:21;;;;;;;7.35;2.38;;;15.90;99.90;;;;;;4964967;28;20051;-80
2022/05/21 10:28:05;;;;;;;9.48;2.25;;;16.00;99.90;;;;;;4976072;28;20042;-80
2022/05/21 10:30:52;;;;;;;6.43;2.58;;;16.00;99.90;;;;;;4948952;28;20069;-80
2022/05/21 10:34:08;;;;;;;8.45;2.30;;;15.80;99.90;;;;;;4976731;28;20133;-80
2022/05/21 10:36:43;;;;;;;4.85;2.10;;;15.90;99.90;;;;;;4900385;29;20110;-79
2022/05/21 10:39:20;;;;;;;5.72;2.25;;;16.20;99.90;;;;;;4897256;29;20134;-81
2022/05/21 10:42:30;;;;;;;5.93;2.40;;;16.40;99.90;;;;;;4947242;28;20141;-80
2022/05/21 10:45:01;;;;;;;6.53;2.05;;;16.40;99.90;;;;;;4948359;28;20787;-80
2022/05/21 10:47:55;;;;;;;6.87;2.23;;;16.30;99.90;;;;;;4966447;28;20043;-81
2022/05/21 10:50:24;;;;;;;6.35;2.00;;;16.10;99.90;;;;;;4966130;28;20045;-83
2022/05/21 10:53:25;;;;;;;6.95;2.25;;;16.00;99.90;;;;;;4950122;28;20085;-82
2022/05/21 10:56:13;;;;;;;7.38;2.10;;;15.90;99.90;;;;;;4938692;28;20515;-84
2022/05/21 10:58:46;;;;;;;4.63;2.10;;;15.80;99.90;;;;;;4946767;28;20073;-81
2022/05/21 11:01:28;;;;;;;7.78;2.22;;;16.10;99.90;;;;;;4947835;28;20043;-81
2022/05/21 11:04:29;;;;;;;7.15;2.10;;;16.50;99.90;;;;;;4955281;28;20070;-82
2022/05/21 11:07:36;;;;;;;5.88;1.90;;;16.90;99.90;;;;;;4940857;28;20499;-81
2022/05/21 11:10:16;;;;;;;9.85;1.85;;;17.00;99.90;;;;;;4945453;28;20043;-82
2022/05/21 11:12:52;;;;;;;6.40;2.60;;;16.90;99.90;;;;;;4947314;28;20039;-83
2022/05/21 11:15:30;;;;;;;7.30;2.00;;;16.60;99.90;;;;;;4939910;28;20042;-82
2022/05/21 11:18:26;;;;;;;5.95;2.22;;;16.60;99.90;;;;;;4948255;28;20050;-83
2022/05/21 11:21:08;;;;;;;7.45;1.77;;;16.50;99.90;;;;;;4942015;28;20046;-81
2022/05/21 11:23:51;;;;;;;8.40;2.47;;;16.30;99.90;;;;;;4959067;28;20030;-81
2022/05/21 11:26:28;;;;;;;4.18;1.73;;;16.50;99.90;;;;;;4968750;28;20052;-82
2022/05/21 11:29:15;;;;;;;5.68;1.60;;;16.60;99.90;;;;;;4971486;28;20659;-82
2022/05/21 11:37:42;;;;;;;7.65;1.88;;;16.70;99.90;;;;;;4970874;28;20216;-81
2022/05/21 11:40:28;;;;;;;8.85;1.70;;;16.60;99.90;;;;;;4953691;28;20137;-81
2022/05/21 11:42:54;;;;;;;5.78;1.95;;;16.90;99.90;;;;;;4951257;28;20039;-81
2022/05/21 11:45:25;;;;;;;7.10;2.42;;;17.00;99.90;;;;;;4933941;28;20079;-81
2022/05/21 11:48:12;;;;;;;5.78;1.58;;;17.00;99.90;;;;;;4971331;28;20356;-81
2022/05/21 11:50:38;;;;;;;7.82;1.95;;;17.00;99.90;;;;;;4969247;28;20073;-81
2022/05/21 11:53:25;;;;;;;4.57;1.60;;;16.90;99.90;;;;;;4954817;28;20097;-81
2022/05/21 11:56:03;;;;;;;3.88;1.60;;;16.90;99.90;;;;;;4941864;28;20502;-81
2022/05/21 11:58:57;;;;;;;4.15;1.30;;;16.70;99.90;;;;;;4950946;28;20053;-81
2022/05/21 12:01:41;;;;;;;5.10;1.63;;;16.90;99.90;;;;;;4953920;28;20042;-81
2022/05/21 12:04:25;;;;;;;4.32;1.42;;;16.80;99.90;;;;;;4952718;28;20050;-81
2022/05/21 12:06:51;;;;;;;5.10;1.85;;;16.60;99.90;;;;;;4963008;28;20096;-81
2022/05/21 12:09:29;;;;;;;6.57;1.60;;;16.60;99.90;;;;;;4948208;28;20042;-82
2022/05/21 12:12:22;;;;;;;4.53;1.35;;;16.80;99.90;;;;;;4958590;28;20133;-81
2022/05/21 12:15:18;;;;;;;8.07;1.67;;;17.20;99.90;;;;;;4941073;28;20081;-81
2022/05/21 12:18:04;;;;;;;7.15;1.80;;;17.50;99.90;;;;;;4958434;28;20042;-81
2022/05/21 12:20:49;;;;;;;10.88;2.25;;;17.90;99.90;;;;;;4949621;28;20034;-82
2022/05/21 12:23:33;;;;;;;8.20;2.40;;;17.90;99.90;;;;;;4954860;28;20058;-81
2022/05/21 12:26:38;;;;;;;5.93;1.83;;;17.70;99.90;;;;;;4964428;28;20046;-82
2022/05/21 12:29:22;;;;;;;7.85;1.92;;;17.70;99.90;;;;;;4936909;28;20047;-82
2022/05/21 12:31:54;;;;;;;7.65;2.53;;;17.70;99.90;;;;;;4938566;28;20046;-82
2022/05/21 12:34:21;;;;;;;5.90;2.23;;;17.90;99.90;;;;;;4957024;28;20047;-81
2022/05/21 12:37:04;;;;;;;5.30;1.67;;;17.70;99.90;;;;;;4952712;28;20400;-82
2022/05/21 12:39:58;;;;;;;7.53;2.40;;;17.70;99.90;;;;;;4948657;28;20046;-82
2022/05/21 12:42:34;;;;;;;6.82;2.20;;;17.70;99.90;;;;;;4968532;28;20038;-82
2022/05/21 12:45:00;;;;;;;5.60;2.30;;;17.90;99.90;;;;;;4960236;28;20073;-82
2022/05/21 12:47:32;;;;;;;9.65;2.20;;;18.00;99.90;;;;;;4967263;28;20066;-81
2022/05/21 12:50:01;;;;;;;7.45;2.10;;;18.00;99.90;;;;;;4945282;28;20069;-82
2022/05/21 12:52:29;;;;;;;6.85;2.10;;;18.10;99.90;;;;;;4971326;28;20057;-82
2022/05/21 12:55:27;;;;;;;6.93;2.22;;;17.90;99.90;;;;;;4977004;28;20060;-81
2022/05/21 12:58:13;;;;;;;5.82;2.17;;;17.50;99.90;;;;;;4949338;28;20140;-79
2022/05/21 13:00:48;;;;;;;6.22;1.80;;;17.30;99.90;;;;;;4958935;28;20114;-81
2022/05/21 13:03:15;;;;;;;6.45;1.95;;;17.10;99.90;;;;;;4966174;28;20038;-80
2022/05/21 13:05:58;;;;;;;9.20;2.58;;;17.30;99.90;;;;;;5007556;28;20033;-80
2022/05/21 13:08:25;;;;;;;4.93;1.65;;;17.50;99.90;;;;;;4994871;28;20051;-79
2022/05/21 13:11:18;;;;;;;7.18;1.80;;;17.70;99.90;;;;;;4976664;28;20041;-80
2022/05/21 13:13:50;;;;;;;4.95;2.25;;;17.90;99.90;;;;;;4971455;28;20112;-80
2022/05/21 13:16:19;;;;;;;5.00;1.45;;;18.00;99.90;;;;;;4975228;28;20133;-80
2022/05/21 13:19:14;;;;;;;5.70;2.20;;;18.20;99.90;;;;;;4976883;28;20458;-80
2022/05/21 13:21:51;;;;;;;5.55;1.75;;;18.30;99.90;;;;;;4961091;28;20034;-80
2022/05/21 13:24:23;;;;;;;3.25;1.83;;;18.50;99.90;;;;;;4977876;28;20053;-80
2022/05/21 13:27:11;;;;;;;3.92;1.77;;;18.70;99.90;;;;;;4975133;28;20388;-80
2022/05/21 13:29:39;;;;;;;6.35;2.10;;;18.90;99.90;;;;;;4983141;28;20034;-80
2022/05/21 13:32:25;;;;;;;5.65;2.00;;;18.80;99.90;;;;;;4976913;28;20043;-80
2022/05/21 13:34:56;;;;;;;7.75;2.00;;;18.90;99.90;;;;;;4976275;28;20528;-80